Station: Nuriootpa  

  Atmospheric Gas Attenuation - ITU Rec 676-11   ----------------- dB/100km -----------------
Date Time Temp RH % AH g/m3 Dew Point Wind Direction Speed kph Gust kph Barometer mB Rainfall Since 9am 24GHz 47GHz 76GHz 122GHz 134GHz 241GHz
08/05 12:00 14.3 79 9.71 10.7 22 39 1030.8 0 21.9 28.3 44.9 117.8 114.2 393.7
08/05 11:50 14.5 78 9.7 10.7 20 26 1030.9 0 21.9 28.2 44.8 117.4 113.8 392.3
08/05 11:40 14.6 79 9.89 11 19 24 1031 0 22.3 28.5 45.5 119.4 116.3 401.0
08/05 11:30 14.7 79 9.95 11.1 22 32 1031.2 0 22.4 28.5 45.7 119.9 117.0 403.4
08/05 11:20 14 82 9.89 11 19 26 1031.2 0 22.3 28.7 45.9 120.3 117.2 404.1
08/05 11:10 13.6 81 9.53 10.4 22 28 1031.4 0 21.6 28.2 44.6 116.9 112.8 388.7
08/05 11:00 13.6 81 9.53 10.4 19 30 1031.4 0 21.6 28.2 44.6 116.9 112.8 388.7
08/05 10:50 13.4 86 10 11.1 15 20 1031.5 0 22.6 29.1 46.7 122.6 119.7 412.8
08/05 10:40 12.7 89 9.91 10.9 22 24 1031.6 0 22.4 29.1 46.7 122.7 119.5 412.1
08/05 10:30 12.7 88 9.8 10.8 24 33 1031.6 0 22.2 29.0 46.3 121.4 118.0 406.6
08/05 10:20 13 83 9.41 10.2 20 24 1031.6 0 21.3 28.2 44.4 116.5 112.1 386.0
08/05 10:10 13.4 80 9.3 10 19 30 1031.5 0 21.1 27.9 43.7 114.6 109.9 378.6
08/05 10:00 13.3 80 9.24 9.9 19 26 1031.4 0 21.0 27.8 43.5 114.1 109.3 376.2
08/05 09:50 13.2 80 9.19 9.8 22 26 1031.4 0 20.9 27.7 43.4 113.7 108.7 374.3
08/05 09:40 13.3 79 9.13 9.7 15 19 1031.3 0 20.7 27.6 43.1 112.9 107.7 370.9
08/05 09:30 13.2 78 8.96 9.5 19 26 1031.3 0 20.4 27.4 42.4 111.1 105.5 363.2
08/05 09:20 13.3 77 8.9 9.4 19 22 1031.2 0 20.2 27.2 42.1 110.3 104.6 359.8
08/05 09:10 13.2 78 8.96 9.5 17 22 1031.2 0 20.4 27.4 42.4 111.1 105.5 363.2
08/05 09:00 12.9 80 9.02 9.5 19 26 1031.2 0 20.5 27.5 42.8 112.2 106.8 367.4
08/05 08:50 12.6 80 8.85 9.2 17 20 1031.2 0.2 20.2 27.4 42.3 110.7 104.8 360.7
08/05 08:40 12.5 81 8.91 9.3 17 20 1031.1 0.2 20.3 27.5 42.6 111.5 105.8 364.0
08/05 08:30 12.5 81 8.91 9.3 19 24 1031 0.2 20.3 27.5 42.6 111.5 105.8 364.0
08/05 08:20 12.4 81 8.85 9.2 17 19 1030.9 0.2 20.2 27.4 42.4 111.0 105.1 361.5
08/05 08:10 12.3 81 8.8 9.1 22 26 1030.8 0.2 20.1 27.3 42.2 110.6 104.5 359.5
08/05 08:00 12.2 82 8.85 9.2 17 24 1030.6 0.2 20.2 27.5 42.4 111.2 105.3 362.4
08/05 07:50 12.1 82 8.79 9.1 13 17 1030.5 0.2 20.1 27.4 42.2 110.7 104.6 359.9
08/05 07:40 11.9 84 8.9 9.3 17 24 1030.3 0.2 20.3 27.6 42.8 112.2 106.4 366.1
08/05 07:30 11.7 86 9 9.4 13 17 1030.2 0.2 20.5 27.8 43.3 113.6 108.1 371.9
08/05 07:20 11.6 86 8.94 9.3 15 15 1030.2 0.2 20.4 27.8 43.1 113.1 107.4 369.4
08/05 07:10 11.6 87 9.04 9.5 13 17 1030.1 0.2 20.6 27.9 43.6 114.2 108.8 374.3
08/05 07:00 11.4 88 9.03 9.5 15 22 1029.9 0.2 20.6 28.0 43.6 114.4 108.9 374.7
08/05 06:50 11.4 88 9.03 9.5 19 24 1030.1 0.2 20.6 28.0 43.6 114.4 108.9 374.7
08/05 06:40 11.4 88 9.03 9.5 17 20 1030.2 0.2 20.6 28.0 43.6 114.4 108.9 374.8
08/05 06:30 11.4 88 9.03 9.5 15 20 1029.9 0.2 20.6 28.0 43.6 114.4 108.9 374.7
08/05 06:20 11.3 87 8.88 9.2 17 20 1030.1 0.2 20.3 27.8 43.0 112.8 107.0 367.9
08/05 06:10 11.4 86 8.83 9.1 13 15 1030 0.2 20.2 27.6 42.8 112.1 106.1 364.9
08/05 06:00 11.4 86 8.83 9.1 11 17 1029.7 0.2 20.2 27.6 42.8 112.1 106.1 364.9
08/05 05:50 11.4 85 8.73 9 7 9 1030.1 0.2 20.0 27.5 42.3 111.0 104.7 360.1
08/05 05:40 11.3 86 8.77 9 11 13 1029.9 0.2 20.1 27.6 42.6 111.5 105.4 362.5
08/05 05:30 11.2 87 8.82 9.1 13 15 1029.8 0.2 20.2 27.7 42.8 112.2 106.2 365.3
08/05 05:20 11.1 88 8.87 9.2 9 11 1029.9 0.2 20.3 27.8 43.1 113.0 107.1 368.3
08/05 05:10 11.1 88 8.87 9.2 11 13 1030 0.2 20.3 27.8 43.1 113.0 107.1 368.3
08/05 05:00 11.1 88 8.87 9.2 11 19 1029.9 0.2 20.3 27.8 43.1 113.0 107.1 368.3
08/05 04:50 11.1 88 8.87 9.2 15 15 1030 0.2 20.3 27.8 43.1 113.0 107.1 368.3
08/05 04:40 11 88 8.81 9.1 11 13 1029.9 0.2 20.2 27.7 42.9 112.4 106.4 365.8
08/05 04:30 11 88 8.81 9.1 13 19 1029.9 0.2 20.2 27.7 42.9 112.4 106.4 365.8
08/05 04:20 11 87 8.71 8.9 11 15 1030.1 0.2 19.9 27.6 42.5 111.3 105.0 361.0
08/05 04:10 11.2 85 8.62 8.8 13 13 1029.9 0.2 19.7 27.3 42.0 110.0 103.5 355.6
08/05 04:00 11.1 85 8.56 8.7 13 19 1029.6 0.2 19.6 27.3 41.8 109.4 102.7 353.1
08/05 03:50 11.1 85 8.56 8.7 15 17 1029.8 0.2 19.6 27.3 41.8 109.5 102.7 353.1
08/05 03:40 11 85 8.51 8.6 11 13 1030 0.2 19.5 27.2 41.6 109.1 102.2 351.2
08/05 03:30 11 85 8.51 8.6 11 15 1030 0.2 19.5 27.2 41.6 109.1 102.2 351.2
08/05 03:20 11 85 8.51 8.6 13 15 1030 0.2 19.5 27.2 41.6 109.1 102.2 351.2
08/05 03:10 10.9 85 8.46 8.5 15 17 1029.9 0.2 19.4 27.2 41.5 108.6 101.6 349.2
08/05 03:00 11 83 8.31 8.2 15 24 1029.8 0.2 19.1 26.9 40.8 106.8 99.4 341.5
08/05 02:50 11.2 81 8.21 8.1 15 17 1030.2 0.2 18.9 26.7 40.3 105.5 97.8 336.0
08/05 02:40 11.1 81 8.16 8 9 11 1030 0.2 18.8 26.6 40.1 105.0 97.3 334.0
08/05 02:30 11.1 82 8.26 8.1 9 15 1030 0.2 19.0 26.8 40.5 106.1 98.6 338.7
08/05 02:20 11 81 8.11 7.9 9 9 1030.1 0.2 18.7 26.6 40.0 104.6 96.7 332.0
08/05 02:10 10.9 82 8.16 8 9 11 1030.1 0.2 18.8 26.7 40.2 105.3 97.5 334.8
08/05 02:00 10.7 84 8.25 8.1 9 13 1030.1 0.2 19.0 26.9 40.7 106.6 99.0 340.0
08/05 01:50 10.5 85 8.25 8.1 7 9 1030.1 0.2 19.0 26.9 40.8 106.8 99.3 340.9
08/05 01:40 10.4 86 8.29 8.2 6 6 1030.2 0.2 19.1 27.0 41.0 107.4 100.0 343.3
08/05 01:30 10.2 87 8.28 8.1 2 7 1030.3 0.2 19.1 27.1 41.1 107.6 100.1 343.7
08/05 01:20 10.2 87 8.28 8.1 0 0 1030.4 0.2 19.1 27.1 41.1 107.6 100.1 343.8
08/05 01:10 10.2 86 8.19 8 0 0 1030.4 0.2 18.9 26.9 40.7 106.6 98.9 339.4
08/05 01:00 10.2 86 8.19 8 6 7 1030.6 0.2 18.9 27.0 40.7 106.6 98.9 339.4
08/05 00:50 10.4 86 8.29 8.2 4 6 1030.6 0.2 19.1 27.1 41.0 107.5 100.0 343.4
08/05 00:40 10.5 85 8.25 8.1 9 9 1030.4 0.2 19.0 27.0 40.8 106.9 99.3 341.0
08/05 00:30 10.5 84 8.15 7.9 9 13 1030.3 0.2 18.8 26.8 40.4 105.7 97.9 336.1
08/05 00:20 10.6 84 8.2 8 11 11 1030.5 0.2 18.9 26.8 40.6 106.2 98.5 338.2
08/05 00:10 10.5 84 8.15 7.9 9 11 1030.5 0.2 18.8 26.8 40.4 105.8 97.9 336.2
08/05 00:00 10.4 84 8.1 7.8 11 17 1030.4 0.2 18.7 26.7 40.2 105.3 97.4 334.2
07/05 23:50 10.3 85 8.14 7.9 11 13 1030.5 0.2 18.8 26.8 40.5 105.9 98.0 336.6
07/05 23:40 10.1 86 8.13 7.9 9 11 1030.5 0.2 18.7 26.9 40.5 106.1 98.2 336.9
07/05 23:30 10 86 8.08 7.8 9 13 1030.3 0.2 18.6 26.8 40.4 105.6 97.6 334.9
07/05 23:20 9.8 86 7.98 7.6 9 11 1030.4 0.2 18.4 26.7 40.0 104.8 96.5 330.9
07/05 23:10 9.7 85 7.84 7.3 11 11 1030.4 0.2 18.1 26.5 39.5 103.4 94.7 324.6
07/05 23:00 9.8 83 7.7 7.1 11 15 1030.3 0.2 17.8 26.2 38.9 101.7 92.6 317.5
07/05 22:50 10.2 83 7.9 7.4 11 13 1030.4 0.2 18.2 26.5 39.5 103.4 94.9 325.4
07/05 22:40 10.3 81 7.76 7.2 11 15 1030.6 0.2 17.9 26.2 38.9 101.7 92.8 318.4
07/05 22:30 10 82 7.71 7.1 7 20 1030.9 0.2 17.8 26.2 38.8 101.6 92.6 317.3
07/05 22:20 9.6 83 7.61 6.9 6 7 1031 0.2 17.7 26.2 38.6 101.0 91.7 314.1
07/05 22:10 9.2 84 7.5 6.6 6 6 1031 0.2 17.4 26.1 38.4 100.3 90.6 310.5
07/05 22:00 9 83 7.32 6.3 6 9 1030.8 0.2 17.1 25.9 37.7 98.5 88.4 302.6
07/05 21:50 8.8 84 7.31 6.2 7 7 1030.9 0.2 17.0 25.9 37.8 98.7 88.5 302.9
07/05 21:40 8.7 85 7.35 6.3 0 0 1030.8 0.2 17.1 26.0 38.0 99.3 89.2 305.2
07/05 21:30 8.7 84 7.27 6.2 0 0 1030.9 0.2 17.0 25.9 37.6 98.4 88.1 301.4
07/05 21:20 8.7 84 7.27 6.2 0 0 1030.8 0.2 17.0 25.9 37.6 98.4 88.1 301.4
07/05 21:10 8.8 85 7.4 6.4 0 0 1030.9 0.2 17.2 26.1 38.1 99.7 89.7 307.2
07/05 21:00 8.6 86 7.39 6.4 0 0 1030.9 0.2 17.2 26.1 38.2 99.8 89.8 307.5
07/05 20:50 8.5 87 7.43 6.5 0 0 1030.9 0.2 17.3 26.2 38.4 100.4 90.5 309.9
07/05 20:40 8.4 87 7.38 6.4 0 0 1030.8 0.2 17.2 26.1 38.2 100.0 89.9 307.8
07/05 20:30 8.1 87 7.24 6.1 0 0 1030.8 0.2 16.9 26.0 37.8 98.8 88.3 302.3
07/05 20:20 8.3 85 7.17 5.9 0 0 1030.9 0.2 16.8 25.8 37.4 97.8 87.2 298.1
07/05 20:10 8.4 83 7.04 5.7 0 0 1031 0.2 16.5 25.6 36.8 96.2 85.3 291.6
07/05 20:00 8.3 83 7 5.6 0 0 1031 0.2 16.4 25.5 36.7 95.9 84.9 290.1
07/05 19:50 8.2 84 7.04 5.7 0 0 1031 0.2 16.5 25.6 36.9 96.5 85.5 292.3
07/05 19:40 8.4 79 6.7 5 4 6 1031 0.2 15.8 25.0 35.5 92.5 80.7 275.5
07/05 19:30 8.8 77 6.7 5 6 7 1030.9 0.2 15.7 24.9 35.3 92.0 80.3 274.1

Last Refresh: 08-May-2026 12:07:36

Bureau of Meteorology